Time;durP1;ratioP1;P1;durP2;ratioP2;P2;SDS_P1;SDS_P2;PMS_P1;PMS_P2;Temp;Humidity;BMP_temperature;BMP_pressure;BME280_temperature;BME280_humidity;BME280_pressure;Samples;Min_cycle;Max_cycle;Signal;HPM_P1;HPM_P2
2022/01/08 00:00:31;;;;;;;20.73;11.93;;;;;;;-0.04;97.29;100934.00;5111561;28;20063;-73
2022/01/08 00:02:59;;;;;;;20.48;11.88;;;;;;;-0.02;97.39;100940.03;5111228;28;20056;-72
2022/01/08 00:05:27;;;;;;;21.42;11.02;;;;;;;0.04;97.36;100933.03;5111525;28;20043;-73
2022/01/08 00:07:55;;;;;;;23.90;12.00;;;;;;;0.05;96.31;100933.84;5111510;28;20051;-73
2022/01/08 00:10:23;;;;;;;19.83;11.20;;;;;;;0.07;96.66;100937.16;5112266;28;20402;-73
2022/01/08 00:12:51;;;;;;;18.10;10.43;;;;;;;0.21;96.45;100932.66;5111642;28;20055;-73
2022/01/08 00:15:21;;;;;;;17.10;9.93;;;;;;;0.29;94.85;100923.59;5111218;28;20058;-73
2022/01/08 00:17:49;;;;;;;16.88;10.18;;;;;;;0.46;92.59;100919.50;5097908;28;20490;-73
2022/01/08 00:20:17;;;;;;;18.10;9.82;;;;;;;0.44;93.99;100924.22;5115368;28;20050;-73
2022/01/08 00:22:45;;;;;;;18.25;9.82;;;;;;;0.42;93.81;100920.91;5097826;28;20050;-73
2022/01/08 00:25:13;;;;;;;18.55;9.50;;;;;;;0.31;93.49;100916.13;5115690;28;20039;-73
2022/01/08 00:27:41;;;;;;;13.93;8.93;;;;;;;0.13;94.30;100906.75;5115779;28;20043;-73
2022/01/08 00:30:09;;;;;;;13.68;9.02;;;;;;;0.06;94.40;100914.81;5115364;28;20055;-73
2022/01/08 00:32:38;;;;;;;16.45;8.27;;;;;;;0.05;94.79;100912.34;5115762;28;20051;-73
2022/01/08 00:35:11;;;;;;;19.15;9.73;;;;;;;0.09;94.88;100921.63;5115336;28;20035;-73
2022/01/08 00:37:39;;;;;;;13.88;8.90;;;;;;;0.00;96.16;100915.63;5115558;28;20039;-73
2022/01/08 00:40:09;;;;;;;19.05;9.32;;;;;;;-0.11;96.00;100919.72;5116005;28;20044;-73
2022/01/08 00:42:38;;;;;;;16.83;9.30;;;;;;;-0.20;96.30;100910.97;5115697;28;20062;-72
2022/01/08 00:45:06;;;;;;;14.43;8.25;;;;;;;-0.22;96.86;100914.91;5115193;28;20047;-73
2022/01/08 00:47:34;;;;;;;12.52;7.35;;;;;;;-0.25;96.94;100909.94;5097440;28;20052;-73
2022/01/08 00:50:04;;;;;;;11.10;8.25;;;;;;;-0.27;96.55;100910.13;5115975;28;20039;-73
2022/01/08 00:52:33;;;;;;;14.45;8.23;;;;;;;-0.28;97.05;100906.59;5097454;28;20055;-72
2022/01/08 00:55:01;;;;;;;14.75;8.38;;;;;;;-0.24;96.74;100923.19;5114837;28;20047;-73
2022/01/08 00:57:29;;;;;;;14.77;7.72;;;;;;;-0.20;95.53;100913.66;5115573;28;20071;-73
2022/01/08 00:59:57;;;;;;;17.73;8.30;;;;;;;-0.21;95.16;100908.47;5114731;28;20052;-73
2022/01/08 01:02:25;;;;;;;16.30;7.43;;;;;;;-0.15;94.68;100913.06;5114863;28;20075;-72
2022/01/08 01:04:52;;;;;;;12.98;7.55;;;;;;;-0.15;94.47;100918.44;5115477;28;20047;-73
2022/01/08 01:07:20;;;;;;;16.15;8.13;;;;;;;-0.30;94.37;100910.50;5115101;28;20050;-73
2022/01/08 01:09:50;;;;;;;15.25;7.82;;;;;;;-0.36;94.50;100912.16;5115414;28;20043;-73
2022/01/08 01:12:18;;;;;;;12.43;7.90;;;;;;;-0.44;95.49;100901.56;5115009;28;20044;-72
2022/01/08 01:15:09;;;;;;;11.48;7.88;;;;;;;-0.49;95.83;100896.75;5099464;28;20052;-73
2022/01/08 01:17:38;;;;;;;10.63;7.20;;;;;;;-0.53;96.40;100902.75;5096452;28;20047;-73
2022/01/08 01:20:07;;;;;;;12.05;7.47;;;;;;;-0.57;97.03;100896.94;5114077;28;20066;-73
2022/01/08 01:22:50;;;;;;;13.60;7.57;;;;;;;-0.57;96.72;100894.25;5115130;28;20050;-73
2022/01/08 01:25:25;;;;;;;15.88;8.10;;;;;;;-0.57;97.41;100889.72;5114928;28;20047;-73
2022/01/08 01:28:12;;;;;;;13.00;8.18;;;;;;;-0.62;98.23;100892.16;5114039;28;20047;-73
2022/01/08 01:42:16;;;;;;;10.45;6.55;;;;;;;-0.80;98.55;100876.53;5114703;28;20044;-73
2022/01/08 01:47:34;;;;;;;8.20;5.88;;;;;;;-0.85;96.44;100870.91;5114321;28;20051;-72
2022/01/08 01:50:06;;;;;;;12.02;6.30;;;;;;;-0.92;96.39;100875.41;5114040;28;20053;-73
2022/01/08 01:52:34;;;;;;;8.80;6.10;;;;;;;-0.98;96.91;100871.66;5093446;28;20052;-72
2022/01/08 01:55:04;;;;;;;11.98;6.50;;;;;;;-1.02;96.94;100862.31;5113574;28;20067;-72
2022/01/08 01:57:33;;;;;;;9.18;5.43;;;;;;;-0.91;96.08;100856.41;5114252;28;20051;-72
2022/01/08 02:00:04;;;;;;;9.20;6.22;;;;;;;-0.77;94.76;100853.81;5113546;28;20052;-72
2022/01/08 02:02:39;;;;;;;11.07;6.47;;;;;;;-0.82;94.27;100841.78;5113727;28;20051;-73
2022/01/08 02:05:08;;;;;;;12.15;6.35;;;;;;;-0.92;95.37;100840.47;5113415;28;20047;-72
2022/01/08 02:07:36;;;;;;;11.30;6.88;;;;;;;-0.98;95.55;100832.16;5108835;28;20047;-72
2022/01/08 02:10:05;;;;;;;11.18;6.75;;;;;;;-0.87;95.20;100836.16;5112203;28;20055;-73
2022/01/08 02:12:33;;;;;;;11.18;6.22;;;;;;;-0.80;95.19;100819.28;5113806;28;20062;-72
2022/01/08 02:15:02;;;;;;;11.10;6.72;;;;;;;-0.77;94.71;100830.47;5112817;28;20406;-72
2022/01/08 02:17:30;;;;;;;10.85;6.82;;;;;;;-0.79;94.73;100837.06;5113495;28;20051;-72
2022/01/08 02:19:58;;;;;;;12.93;6.72;;;;;;;-0.81;94.82;100829.19;5113415;28;20062;-72
2022/01/08 02:22:26;;;;;;;10.43;6.43;;;;;;;-0.89;95.88;100821.28;5113933;28;20058;-72
2022/01/08 02:24:54;;;;;;;12.90;6.25;;;;;;;-0.96;96.91;100818.56;5113173;28;20070;-73
2022/01/08 02:27:22;;;;;;;11.57;6.53;;;;;;;-1.04;97.61;100814.16;5113914;28;20039;-72
2022/01/08 02:29:51;;;;;;;14.65;6.90;;;;;;;-1.12;98.20;100812.44;5113595;28;20043;-72
2022/01/08 02:32:25;;;;;;;15.05;7.25;;;;;;;-1.16;98.99;100805.81;5113021;28;20394;-73
2022/01/08 02:34:54;;;;;;;12.18;6.75;;;;;;;-1.18;100.00;100807.84;5113689;28;20394;-72
2022/01/08 02:37:25;;;;;;;13.02;6.93;;;;;;;-1.21;100.00;100808.28;5110093;28;20036;-72
2022/01/08 02:39:53;;;;;;;9.38;7.05;;;;;;;-1.19;100.00;100808.88;5108932;28;20043;-72
2022/01/08 02:42:23;;;;;;;14.05;7.10;;;;;;;-1.23;100.00;100803.09;5112700;28;20048;-73
2022/01/08 02:44:51;;;;;;;11.55;7.43;;;;;;;-1.27;100.00;100787.56;5113053;28;20047;-72
2022/01/08 02:47:21;;;;;;;12.75;7.50;;;;;;;-1.26;100.00;100789.22;5112971;28;20052;-72
2022/01/08 02:49:52;;;;;;;12.32;7.20;;;;;;;-1.35;100.00;100780.47;5112649;28;20051;-72
2022/01/08 02:52:23;;;;;;;8.95;6.75;;;;;;;-1.41;100.00;100789.31;5113020;28;20043;-72
2022/01/08 02:54:51;;;;;;;12.77;7.43;;;;;;;-1.43;100.00;100791.38;5113231;28;20040;-72
2022/01/08 02:57:19;;;;;;;11.88;8.05;;;;;;;-1.44;100.00;100795.91;5112984;28;20047;-72
2022/01/08 02:59:47;;;;;;;11.77;7.15;;;;;;;-1.48;100.00;100800.00;5094810;28;20065;-72
2022/01/08 03:02:15;;;;;;;13.13;7.53;;;;;;;-1.53;100.00;100794.38;5113236;28;20058;-72
2022/01/08 03:04:45;;;;;;;15.07;7.80;;;;;;;-1.58;100.00;100786.06;5094717;28;20052;-72
2022/01/08 03:07:13;;;;;;;13.10;7.65;;;;;;;-1.60;100.00;100788.97;5112606;28;20382;-72
2022/01/08 03:09:42;;;;;;;15.05;8.05;;;;;;;-1.59;100.00;100779.91;5112707;28;20051;-72
2022/01/08 03:12:10;;;;;;;12.73;7.60;;;;;;;-1.63;100.00;100779.44;5112466;28;20047;-72
2022/01/08 03:14:38;;;;;;;15.48;7.75;;;;;;;-1.64;100.00;100783.16;5112218;28;20043;-72
2022/01/08 03:17:06;;;;;;;18.00;7.60;;;;;;;-1.69;100.00;100774.88;5112811;28;20375;-72
2022/01/08 03:19:35;;;;;;;11.73;7.85;;;;;;;-1.68;100.00;100775.69;5112279;28;20071;-72
2022/01/08 03:22:04;;;;;;;14.73;7.45;;;;;;;-1.70;100.00;100777.72;5111619;28;20501;-72
2022/01/08 03:24:33;;;;;;;13.38;7.57;;;;;;;-1.68;100.00;100786.41;5112421;28;20052;-72
2022/01/08 03:27:01;;;;;;;11.82;7.47;;;;;;;-1.62;100.00;100791.84;5112450;28;20516;-72
2022/01/08 03:29:29;;;;;;;13.77;7.70;;;;;;;-1.53;100.00;100776.44;5112954;28;20047;-72
2022/01/08 03:31:56;;;;;;;11.82;7.55;;;;;;;-1.65;100.00;100786.84;5112332;28;20513;-72
2022/01/08 03:34:25;;;;;;;10.57;7.15;;;;;;;-1.73;100.00;100778.09;5112257;28;20039;-72
2022/01/08 03:36:52;;;;;;;11.48;7.28;;;;;;;-1.80;100.00;100783.44;5111962;28;20047;-72
2022/01/08 03:39:22;;;;;;;14.60;7.65;;;;;;;-1.81;100.00;100781.78;5112310;28;20040;-72
2022/01/08 03:41:49;;;;;;;13.57;7.80;;;;;;;-1.86;100.00;100766.22;5112676;28;20049;-72
2022/01/08 03:44:18;;;;;;;14.85;8.48;;;;;;;-1.82;100.00;100769.34;5089078;28;20051;-72
2022/01/08 03:46:46;;;;;;;10.95;7.43;;;;;;;-1.84;100.00;100768.72;5107059;28;20047;-72
2022/01/08 03:49:25;;;;;;;13.23;7.22;;;;;;;-1.86;100.00;100768.09;5112559;28;20038;-72
2022/01/08 03:51:56;;;;;;;11.85;7.15;;;;;;;-1.84;100.00;100772.25;5094223;28;20043;-72
2022/01/08 03:54:24;;;;;;;15.27;8.32;;;;;;;-1.71;100.00;100776.88;5112322;28;20044;-72
2022/01/08 03:56:51;;;;;;;13.98;7.65;;;;;;;-1.79;100.00;100777.03;5112513;28;20058;-72
2022/01/08 03:59:19;;;;;;;17.20;8.18;;;;;;;-1.90;100.00;100767.66;5112446;28;20043;-72
2022/01/08 04:01:47;;;;;;;27.52;10.52;;;;;;;-1.85;100.00;100769.75;5111736;28;20055;-72
2022/01/08 04:04:15;;;;;;;24.55;10.13;;;;;;;-1.93;100.00;100768.88;5111629;28;20055;-72
2022/01/08 04:06:43;;;;;;;27.73;11.85;;;;;;;-1.96;100.00;100769.25;5111540;28;20047;-72
2022/01/08 04:09:11;;;;;;;24.42;11.80;;;;;;;-2.01;100.00;100766.31;5111736;28;20059;-72
2022/01/08 04:11:41;;;;;;;36.25;13.60;;;;;;;-2.07;100.00;100767.91;5111750;28;20060;-72
2022/01/08 04:14:09;;;;;;;44.10;16.48;;;;;;;-2.09;100.00;100758.41;5111385;28;20048;-73
2022/01/08 04:16:41;;;;;;;40.15;15.07;;;;;;;-2.11;100.00;100760.44;5094282;28;20063;-72
2022/01/08 04:19:09;;;;;;;50.63;17.05;;;;;;;-2.13;100.00;100762.47;5111537;28;20047;-72
2022/01/08 04:21:59;;;;;;;37.80;15.18;;;;;;;-2.17;100.00;100768.22;5112208;28;20044;-72
2022/01/08 04:24:27;;;;;;;41.47;18.27;;;;;;;-2.12;100.00;100772.16;5100508;28;20063;-72
2022/01/08 04:26:55;;;;;;;48.13;17.73;;;;;;;-2.13;100.00;100774.03;5111463;28;20055;-72
2022/01/08 04:29:23;;;;;;;53.28;18.85;;;;;;;-2.05;100.00;100773.91;5112284;28;20035;-72
2022/01/08 04:31:51;;;;;;;52.70;18.83;;;;;;;-2.04;100.00;100786.28;5111020;28;20513;-72
2022/01/08 04:34:19;;;;;;;44.88;17.45;;;;;;;-2.11;100.00;100781.91;5111506;28;20516;-72
2022/01/08 04:36:47;;;;;;;47.72;16.35;;;;;;;-2.14;100.00;100782.25;5111589;28;20051;-72
2022/01/08 04:39:15;;;;;;;35.40;14.70;;;;;;;-2.02;100.00;100780.75;5111432;28;20042;-72
2022/01/08 04:41:43;;;;;;;26.35;11.73;;;;;;;-2.01;100.00;100774.34;5111579;28;20063;-72
2022/01/08 04:44:11;;;;;;;30.52;12.88;;;;;;;-2.05;100.00;100781.94;5093081;28;20062;-72
2022/01/08 04:46:41;;;;;;;31.00;12.48;;;;;;;-1.96;100.00;100777.28;5111155;28;20050;-72
2022/01/08 04:49:09;;;;;;;30.42;12.77;;;;;;;-1.71;100.00;100776.06;5111121;28;20054;-72
2022/01/08 04:51:37;;;;;;;29.90;12.80;;;;;;;-1.87;100.00;100771.81;5107438;28;20058;-72
2022/01/08 04:54:05;;;;;;;29.88;12.52;;;;;;;-2.04;100.00;100783.59;5108081;28;20067;-72
2022/01/08 04:56:33;;;;;;;32.05;13.38;;;;;;;-2.15;100.00;100776.09;5111135;28;20040;-72
2022/01/08 04:59:01;;;;;;;36.58;13.68;;;;;;;-2.21;100.00;100782.19;5111919;28;20514;-72
2022/01/08 05:01:29;;;;;;;40.60;15.48;;;;;;;-2.07;100.00;100773.28;5111194;28;20394;-72
2022/01/08 05:03:57;;;;;;;35.17;13.65;;;;;;;-2.15;100.00;100778.78;5115003;28;20059;-72
2022/01/08 05:06:26;;;;;;;34.35;14.10;;;;;;;-2.16;100.00;100771.72;5114594;28;20397;-72
2022/01/08 05:08:54;;;;;;;39.38;14.40;;;;;;;-2.24;100.00;100772.69;5115335;28;20054;-72
2022/01/08 05:11:22;;;;;;;30.90;13.65;;;;;;;-2.32;100.00;100767.44;5114787;28;20059;-71
2022/01/08 05:13:50;;;;;;;27.48;11.68;;;;;;;-2.37;100.00;100756.44;5114400;28;20055;-72
2022/01/08 05:16:18;;;;;;;23.33;11.32;;;;;;;-2.38;100.00;100744.06;5114486;28;20378;-71
2022/01/08 05:18:47;;;;;;;26.00;10.65;;;;;;;-2.35;100.00;100744.53;5096836;28;20047;-72
2022/01/08 05:23:43;;;;;;;20.80;8.98;;;;;;;-2.21;100.00;100760.72;5109398;28;20055;-72
2022/01/08 05:26:11;;;;;;;22.10;10.05;;;;;;;-2.01;100.00;100760.13;5114332;28;20507;-72
2022/01/08 05:28:39;;;;;;;20.00;10.73;;;;;;;-2.04;100.00;100755.97;5114880;28;20067;-72
2022/01/08 05:31:07;;;;;;;24.17;10.40;;;;;;;-2.11;100.00;100749.72;5114436;28;20486;-72
2022/01/08 05:33:35;;;;;;;22.88;8.98;;;;;;;-2.12;100.00;100754.25;5115036;28;20039;-71
2022/01/08 05:36:03;;;;;;;18.10;9.13;;;;;;;-1.99;100.00;100752.72;5114688;28;20406;-72
2022/01/08 05:38:31;;;;;;;23.83;10.10;;;;;;;-1.94;100.00;100751.13;5096330;28;20051;-72
2022/01/08 05:41:00;;;;;;;20.42;9.90;;;;;;;-1.87;100.00;100755.72;5113736;28;20054;-72
2022/01/08 05:43:28;;;;;;;17.42;9.77;;;;;;;-1.95;100.00;100745.94;5114323;28;20052;-72
2022/01/08 05:45:56;;;;;;;16.42;9.40;;;;;;;-2.01;100.00;100741.34;5113944;28;20044;-72
2022/01/08 05:48:25;;;;;;;17.13;9.15;;;;;;;-2.04;100.00;100745.25;5114251;28;20051;-72
2022/01/08 05:50:53;;;;;;;19.92;8.93;;;;;;;-2.01;100.00;100744.03;5113859;28;20048;-72
2022/01/08 05:53:22;;;;;;;20.77;9.27;;;;;;;-1.98;100.00;100739.09;5111130;28;20051;-72
2022/01/08 05:55:50;;;;;;;20.73;9.55;;;;;;;-2.09;100.00;100734.25;5111345;28;20388;-72
2022/01/08 05:58:18;;;;;;;15.90;9.75;;;;;;;-2.22;100.00;100738.47;5114208;28;20051;-72
2022/01/08 06:00:46;;;;;;;23.52;9.50;;;;;;;-2.28;100.00;100733.88;5113082;28;20054;-72
2022/01/08 06:03:14;;;;;;;19.23;9.85;;;;;;;-2.05;100.00;100740.91;5113801;28;20396;-72
2022/01/08 06:05:42;;;;;;;14.60;8.52;;;;;;;-2.05;100.00;100727.50;5114079;28;20040;-72
2022/01/08 06:08:10;;;;;;;17.20;9.07;;;;;;;-2.21;100.00;100723.19;5113223;28;20043;-72
2022/01/08 06:10:38;;;;;;;17.00;8.32;;;;;;;-2.34;100.00;100721.22;5113222;28;20059;-72
2022/01/08 06:13:05;;;;;;;15.40;8.35;;;;;;;-2.20;100.00;100724.88;5113572;28;20048;-72
2022/01/08 06:15:33;;;;;;;14.93;9.40;;;;;;;-1.99;100.00;100732.09;5113058;28;20046;-72
2022/01/08 06:18:01;;;;;;;20.45;9.23;;;;;;;-2.19;100.00;100726.53;5113209;28;20044;-72
2022/01/08 06:20:29;;;;;;;21.00;10.25;;;;;;;-2.32;100.00;100727.22;5112958;28;20054;-72
2022/01/08 06:22:59;;;;;;;32.40;13.85;;;;;;;-2.31;100.00;100734.25;5094660;28;20504;-72
2022/01/08 06:25:29;;;;;;;28.30;13.57;;;;;;;-2.38;100.00;100744.91;5103689;28;20059;-73
2022/01/08 06:27:57;;;;;;;24.13;12.85;;;;;;;-2.42;100.00;100770.44;5092324;28;20058;-73
2022/01/08 06:30:25;;;;;;;18.48;10.75;;;;;;;-2.20;100.00;100779.31;5100925;28;20059;-72
2022/01/08 06:32:53;;;;;;;17.00;9.07;;;;;;;-2.23;100.00;100787.75;5095154;28;20059;-72
2022/01/08 06:35:21;;;;;;;15.18;9.52;;;;;;;-2.14;100.00;100803.72;5092911;28;20501;-72
2022/01/08 06:37:48;;;;;;;32.70;14.65;;;;;;;-2.14;100.00;100809.94;5096910;28;20047;-72
2022/01/08 06:40:16;;;;;;;38.17;16.85;;;;;;;-2.21;100.00;100804.47;5096252;28;20490;-72
2022/01/08 06:42:44;;;;;;;58.22;19.73;;;;;;;-2.41;100.00;100790.84;5097920;28;20083;-72
2022/01/08 06:45:13;;;;;;;55.83;20.23;;;;;;;-2.55;100.00;100792.53;5116487;27;20055;-72
2022/01/08 06:47:45;;;;;;;53.38;21.45;;;;;;;-2.66;100.00;100809.09;5105778;28;20504;-72
2022/01/08 06:50:13;;;;;;;48.15;20.67;;;;;;;-2.58;100.00;100798.28;5101156;28;20043;-73
2022/01/08 06:52:41;;;;;;;63.03;21.75;;;;;;;-2.41;100.00;100806.13;5094031;28;20055;-73
2022/01/08 06:55:10;;;;;;;57.03;21.35;;;;;;;-2.38;100.00;100813.75;5104555;28;20044;-73
2022/01/08 06:57:38;;;;;;;50.38;20.48;;;;;;;-2.57;100.00;100805.31;5106170;28;20088;-72
2022/01/08 07:00:06;;;;;;;47.58;19.23;;;;;;;-2.70;100.00;100801.44;5094752;28;20047;-72
2022/01/08 07:02:34;;;;;;;44.35;19.02;;;;;;;-2.64;100.00;100810.56;5101049;27;20044;-72
2022/01/08 07:05:02;;;;;;;55.28;19.30;;;;;;;-2.49;100.00;100818.59;5093989;28;20036;-73
2022/01/08 07:07:30;;;;;;;30.45;13.50;;;;;;;-2.43;100.00;100815.16;5094115;28;20044;-73
2022/01/08 07:09:58;;;;;;;18.60;10.00;;;;;;;-2.21;100.00;100836.66;5094656;28;20391;-73
2022/01/08 07:12:26;;;;;;;28.90;12.07;;;;;;;-2.20;100.00;100830.28;5094455;28;20052;-72
2022/01/08 07:14:54;;;;;;;21.02;10.13;;;;;;;-2.33;100.00;100814.03;5101914;28;20040;-72
2022/01/08 07:17:22;;;;;;;16.95;10.00;;;;;;;-2.38;100.00;100824.50;5100199;28;20505;-73
2022/01/08 07:19:50;;;;;;;16.73;9.57;;;;;;;-2.22;100.00;100835.00;5108973;28;20048;-72
2022/01/08 07:22:18;;;;;;;16.05;9.60;;;;;;;-2.28;100.00;100819.66;5110708;28;20104;-72
2022/01/08 07:24:46;;;;;;;18.42;10.10;;;;;;;-2.23;100.00;100814.56;5104695;28;20048;-72
2022/01/08 07:27:14;;;;;;;17.98;11.63;;;;;;;-2.35;100.00;100813.41;5087244;28;20402;-72
2022/01/08 07:29:43;;;;;;;16.52;9.10;;;;;;;-2.30;100.00;100816.31;5109019;28;20059;-73
2022/01/08 07:32:12;;;;;;;15.27;10.15;;;;;;;-2.27;100.00;100810.59;5104480;28;20044;-73
2022/01/08 07:34:40;;;;;;;15.93;10.05;;;;;;;-2.09;100.00;100814.72;5106839;28;20050;-74
2022/01/08 07:37:08;;;;;;;17.08;10.32;;;;;;;-1.70;100.00;100800.03;5104780;27;20050;-73
2022/01/08 07:39:36;;;;;;;16.65;9.98;;;;;;;-1.59;100.00;100803.22;5112351;27;20501;-73
2022/01/08 07:42:04;;;;;;;20.40;10.18;;;;;;;-1.62;100.00;100807.94;5102275;27;20043;-74
2022/01/08 07:44:33;;;;;;;14.80;9.05;;;;;;;-1.50;100.00;100808.25;5098171;28;20056;-74
2022/01/08 07:47:01;;;;;;;14.98;8.70;;;;;;;-1.54;100.00;100803.47;5095408;28;20065;-74
2022/01/08 07:49:29;;;;;;;18.58;9.52;;;;;;;-1.22;100.00;100817.34;5094389;28;20048;-80
2022/01/08 07:51:57;;;;;;;16.67;9.35;;;;;;;-0.62;100.00;100808.81;5064913;28;20043;-81
2022/01/08 07:54:25;;;;;;;16.55;9.18;;;;;;;-0.48;97.50;100800.81;5103737;28;20043;-73
2022/01/08 07:56:53;;;;;;;18.67;10.25;;;;;;;-0.42;97.01;100806.22;5110022;28;20051;-74
2022/01/08 07:59:21;;;;;;;20.10;10.32;;;;;;;-0.58;96.60;100793.94;5109674;28;20047;-74
2022/01/08 08:01:49;;;;;;;17.27;10.10;;;;;;;-0.59;98.10;100789.59;5110731;28;20044;-74
2022/01/08 08:04:17;;;;;;;15.93;10.05;;;;;;;-0.65;97.96;100793.06;5111480;28;20048;-74
2022/01/08 08:06:47;;;;;;;16.75;9.35;;;;;;;-0.71;98.01;100791.19;5111129;28;20036;-74
2022/01/08 08:09:15;;;;;;;16.38;9.45;;;;;;;-0.65;97.62;100795.75;5111556;28;20048;-74
2022/01/08 08:11:43;;;;;;;14.93;9.00;;;;;;;-0.55;97.59;100806.97;5111427;28;20078;-74
2022/01/08 08:14:11;;;;;;;18.80;9.40;;;;;;;-0.38;97.03;100803.13;5093452;28;20406;-74
2022/01/08 08:16:40;;;;;;;18.30;9.93;;;;;;;-0.28;96.23;100785.56;5111816;28;20050;-74
2022/01/08 08:19:08;;;;;;;17.83;9.52;;;;;;;-0.22;96.13;100800.06;5112077;28;20043;-74
2022/01/08 08:21:35;;;;;;;14.98;7.93;;;;;;;0.02;92.91;100792.47;5093925;28;20043;-74
2022/01/08 08:24:06;;;;;;;16.33;9.07;;;;;;;0.23;92.38;100799.53;5111625;28;20043;-74
2022/01/08 08:26:35;;;;;;;12.18;8.82;;;;;;;0.14;91.81;100792.69;5093063;28;20494;-74
2022/01/08 08:29:03;;;;;;;14.35;8.68;;;;;;;0.28;92.16;100795.41;5110916;28;20059;-74
2022/01/08 08:31:32;;;;;;;14.93;9.52;;;;;;;0.54;91.95;100802.66;5111810;28;20039;-74
2022/01/08 08:34:03;;;;;;;16.52;10.68;;;;;;;0.68;91.30;100791.88;5094485;28;20044;-74
2022/01/08 08:36:32;;;;;;;16.95;10.13;;;;;;;0.78;89.46;100790.41;5111826;28;20505;-74
2022/01/08 08:39:03;;;;;;;15.07;9.60;;;;;;;0.75;88.84;100788.16;5116023;28;20062;-74
2022/01/08 08:41:31;;;;;;;16.77;10.57;;;;;;;0.86;89.05;100799.31;5115693;28;20048;-74
2022/01/08 08:43:58;;;;;;;17.48;9.80;;;;;;;1.18;88.34;100791.38;5114474;28;20043;-74
2022/01/08 08:46:27;;;;;;;15.48;10.00;;;;;;;1.08;87.54;100791.81;5115369;28;20058;-74
2022/01/08 08:48:54;;;;;;;15.43;9.95;;;;;;;1.39;87.18;100800.22;5114805;28;20044;-74
2022/01/08 08:51:22;;;;;;;20.10;10.43;;;;;;;1.69;85.69;100791.56;5115007;28;20509;-74
2022/01/08 08:53:50;;;;;;;15.77;9.93;;;;;;;1.77;84.77;100791.34;5114510;28;20054;-74
2022/01/08 08:56:18;;;;;;;19.10;10.77;;;;;;;2.00;83.54;100790.78;5114812;28;20398;-75
2022/01/08 08:58:46;;;;;;;17.88;11.02;;;;;;;2.26;83.15;100790.81;5115013;28;20054;-75
2022/01/08 09:01:14;;;;;;;22.77;12.05;;;;;;;2.32;82.27;100800.75;5114855;28;20052;-75
2022/01/08 09:03:42;;;;;;;18.92;12.30;;;;;;;2.13;82.36;100787.19;5099955;28;20048;-75
2022/01/08 09:06:11;;;;;;;16.73;10.75;;;;;;;2.16;81.97;100796.72;5114850;28;20410;-75
2022/01/08 09:08:40;;;;;;;18.52;12.85;;;;;;;2.22;81.56;100786.91;5114332;28;20055;-75
2022/01/08 09:11:08;;;;;;;17.52;11.65;;;;;;;2.53;80.38;100786.03;5114420;28;20413;-75
2022/01/08 09:13:35;;;;;;;22.48;15.07;;;;;;;2.62;79.55;100792.00;5114904;28;20047;-75
2022/01/08 09:16:04;;;;;;;17.15;12.60;;;;;;;2.60;76.99;100783.28;5114413;28;20040;-75
2022/01/08 09:18:32;;;;;;;13.07;9.15;;;;;;;2.60;75.98;100786.00;5114118;28;20043;-75
2022/01/08 09:21:00;;;;;;;15.02;10.00;;;;;;;2.79;79.72;100784.13;5096564;28;20402;-75
2022/01/08 09:23:28;;;;;;;15.98;9.63;;;;;;;2.79;77.21;100780.63;5114371;28;20098;-75
2022/01/08 09:25:56;;;;;;;14.52;9.70;;;;;;;2.91;74.67;100792.34;5114572;28;20062;-75
2022/01/08 09:28:25;;;;;;;17.70;10.02;;;;;;;3.19;74.53;100785.59;5114418;28;20405;-75
2022/01/08 09:30:54;;;;;;;17.25;9.25;;;;;;;3.34;73.90;100798.72;5113788;28;20058;-75
2022/01/08 09:33:23;;;;;;;12.95;9.15;;;;;;;3.44;72.09;100791.97;5114196;28;20043;-75
2022/01/08 09:35:52;;;;;;;16.02;8.75;;;;;;;3.49;70.80;100795.63;5114657;28;20042;-75
2022/01/08 09:38:20;;;;;;;11.32;8.70;;;;;;;3.38;69.86;100795.59;5114273;28;20532;-76
2022/01/08 09:40:51;;;;;;;16.20;8.57;;;;;;;3.32;68.92;100797.34;5113689;28;20516;-75
2022/01/08 09:43:19;;;;;;;16.38;8.98;;;;;;;3.86;67.98;100792.06;5114199;28;20051;-75
2022/01/08 09:45:48;;;;;;;12.05;7.78;;;;;;;3.57;62.80;100788.28;5114102;28;20040;-75
2022/01/08 09:48:16;;;;;;;13.57;8.75;;;;;;;3.32;64.71;100786.50;5114231;28;20047;-75
2022/01/08 09:50:44;;;;;;;13.95;8.90;;;;;;;3.77;64.69;100788.03;5113766;28;20386;-75
2022/01/08 09:53:12;;;;;;;15.15;8.70;;;;;;;3.78;62.79;100786.97;5113900;28;20044;-75
2022/01/08 09:55:40;;;;;;;15.07;9.10;;;;;;;3.64;64.17;100786.31;5113880;28;20039;-76
2022/01/08 09:58:11;;;;;;;14.75;9.85;;;;;;;3.79;66.15;100790.47;5113505;28;20047;-76
2022/01/08 10:00:39;;;;;;;16.60;10.35;;;;;;;3.82;65.23;100781.91;5114178;28;20047;-75
2022/01/08 10:03:18;;;;;;;14.18;9.02;;;;;;;3.78;65.12;100794.25;5113252;28;20497;-75
2022/01/08 10:05:47;;;;;;;13.68;8.75;;;;;;;3.76;66.02;100798.03;5113382;28;20623;-75
2022/01/08 10:08:35;;;;;;;9.75;8.70;;;;;;;4.10;63.79;100785.91;5113281;28;20055;-76
2022/01/08 10:11:07;;;;;;;13.85;8.80;;;;;;;4.11;65.58;100776.72;5113320;28;20508;-75
2022/01/08 10:13:42;;;;;;;12.80;8.75;;;;;;;4.05;64.03;100783.06;5113212;28;20047;-75
2022/01/08 10:19:04;;;;;;;13.05;8.55;;;;;;;4.73;62.70;100780.91;5099432;28;20052;-76
2022/01/08 10:21:34;;;;;;;13.25;9.57;;;;;;;4.42;62.75;100777.47;5113063;28;20052;-76
2022/01/08 10:24:05;;;;;;;14.90;9.02;;;;;;;4.33;61.17;100768.03;5113409;28;20409;-76
2022/01/08 10:26:40;;;;;;;14.32;9.18;;;;;;;4.15;61.37;100767.88;5113378;28;20484;-76
2022/01/08 10:29:13;;;;;;;13.65;9.13;;;;;;;4.28;63.44;100766.84;5113654;28;20031;-76
2022/01/08 10:31:50;;;;;;;14.50;9.23;;;;;;;4.35;61.53;100771.34;5113377;28;20043;-76
2022/01/08 10:34:22;;;;;;;14.98;10.23;;;;;;;4.52;64.86;100766.88;5095290;28;20043;-76
2022/01/08 10:37:00;;;;;;;13.07;8.68;;;;;;;4.68;62.00;100764.50;5113587;28;20375;-76
2022/01/08 10:39:29;;;;;;;13.15;8.50;;;;;;;4.67;60.67;100762.88;5113470;28;20044;-75
2022/01/08 10:41:58;;;;;;;12.88;9.52;;;;;;;4.97;61.47;100767.34;5112686;28;20047;-75
2022/01/08 10:44:31;;;;;;;14.52;9.13;;;;;;;5.13;60.57;100771.19;5112526;28;20039;-75
2022/01/08 10:47:06;;;;;;;16.13;9.60;;;;;;;5.32;58.95;100769.16;5113225;28;20044;-75
2022/01/08 10:49:48;;;;;;;15.15;10.30;;;;;;;5.10;60.14;100758.13;5094992;28;20044;-75
2022/01/08 10:52:20;;;;;;;13.00;9.60;;;;;;;5.12;60.04;100747.84;5112523;28;20402;-75
2022/01/08 10:54:54;;;;;;;13.85;9.70;;;;;;;5.50;61.36;100748.34;5112023;28;20044;-75
2022/01/08 10:57:32;;;;;;;13.63;8.07;;;;;;;5.33;59.68;100746.38;5112546;28;20425;-75
2022/01/08 11:00:01;;;;;;;12.55;9.32;;;;;;;5.20;59.07;100741.22;5111494;28;20052;-75
2022/01/08 11:02:31;;;;;;;12.27;8.93;;;;;;;5.24;60.84;100728.84;5112315;28;20039;-75
2022/01/08 11:05:06;;;;;;;15.13;9.50;;;;;;;4.83;62.40;100729.63;5094166;28;20446;-75
2022/01/08 11:07:37;;;;;;;13.88;10.70;;;;;;;5.03;60.65;100728.41;5112398;28;20048;-76
2022/01/08 11:10:15;;;;;;;16.05;9.82;;;;;;;4.78;62.88;100729.50;5112417;28;20513;-76
2022/01/08 11:12:45;;;;;;;16.23;10.70;;;;;;;5.01;63.23;100729.72;5112761;28;20052;-76
2022/01/08 11:17:54;;;;;;;17.88;10.80;;;;;;;5.17;62.72;100722.72;5112083;28;20052;-76
2022/01/08 11:20:45;;;;;;;16.75;11.07;;;;;;;5.32;61.35;100705.94;5098138;28;20058;-76
2022/01/08 11:23:15;;;;;;;15.05;10.07;;;;;;;5.35;60.11;100706.28;5112142;28;20058;-75
2022/01/08 11:25:45;;;;;;;16.00;10.40;;;;;;;4.93;61.57;100696.47;5112823;28;20032;-75
2022/01/08 11:28:17;;;;;;;20.05;11.02;;;;;;;4.98;61.90;100699.28;5112132;28;20054;-75
2022/01/08 11:30:50;;;;;;;18.65;12.40;;;;;;;4.90;65.19;100698.84;5111860;28;20059;-76
2022/01/08 11:35:51;;;;;;;16.95;12.30;;;;;;;4.92;65.93;100696.72;5089505;28;20048;-76
2022/01/08 11:38:22;;;;;;;16.88;12.02;;;;;;;5.07;65.07;100694.31;5102943;28;20059;-76
2022/01/08 11:40:52;;;;;;;19.15;11.93;;;;;;;5.15;64.79;100697.72;5112199;28;20063;-76
2022/01/08 11:43:23;;;;;;;21.80;12.77;;;;;;;5.27;64.55;100690.34;5111851;28;20438;-76
2022/01/08 11:45:54;;;;;;;18.92;12.38;;;;;;;5.19;64.88;100683.41;5111851;28;20051;-74
2022/01/08 11:48:36;;;;;;;21.13;13.02;;;;;;;5.30;65.48;100679.03;5111734;28;20054;-73